Time;durP1;ratioP1;P1;durP2;ratioP2;P2;SDS_P1;SDS_P2;PMS_P1;PMS_P2;Temp;Humidity;BMP_temperature;BMP_pressure;BME280_temperature;BME280_humidity;BME280_pressure;Samples;Min_cycle;Max_cycle;Signal;HPM_P1;HPM_P2
2024/04/09 00:02:22;;;;;;;;;;;17.20;99.90;;;17.68;66.04;99091.75;5430863;26;20361;-83
2024/04/09 00:04:49;;;;;;;;;;;17.20;99.90;;;17.68;66.05;99116.03;5461989;26;19928;-83
2024/04/09 00:07:18;;;;;;;;;;;17.20;99.90;;;17.69;66.40;99108.72;5491113;26;19929;-83
2024/04/09 00:09:45;;;;;;;;;;;17.20;99.90;;;17.68;65.89;99110.63;5521553;26;19935;-83
2024/04/09 00:12:21;;;;;;;;;;;17.20;99.90;;;17.68;66.05;99128.69;5522099;26;19940;-83
2024/04/09 00:14:48;;;;;;;;;;;17.20;99.90;;;17.67;66.27;99121.72;5520527;26;19960;-83
2024/04/09 00:17:25;;;;;;;;;;;17.20;99.90;;;17.65;67.06;99116.59;5465716;26;19929;-83
2024/04/09 00:19:51;;;;;;;;;;;17.20;99.90;;;17.57;67.28;99105.66;5466279;26;19955;-83
2024/04/09 00:22:23;;;;;;;;;;;17.00;99.90;;;17.53;67.44;99110.03;5433205;26;19933;-83
2024/04/09 00:24:49;;;;;;;;;;;17.00;99.90;;;17.53;66.85;99115.44;5466311;26;19928;-83
2024/04/09 00:27:18;;;;;;;;;;;17.00;99.90;;;17.50;65.31;99128.38;5465396;26;19982;-83
2024/04/09 00:29:44;;;;;;;;;;;17.00;99.90;;;17.45;65.80;99116.88;5463986;26;19928;-83
2024/04/09 00:32:13;;;;;;;;;;;17.00;99.90;;;17.47;65.27;99115.50;5465727;26;19961;-83
2024/04/09 00:34:43;;;;;;;;;;;17.00;99.90;;;17.47;59.79;99088.53;5462582;26;19937;-83
2024/04/09 00:37:14;;;;;;;;;;;17.10;99.90;;;17.57;59.31;99094.84;5462298;26;19933;-83
2024/04/09 00:39:41;;;;;;;;;;;17.20;99.90;;;17.64;56.97;99101.50;5466900;26;20005;-83
2024/04/09 00:42:11;;;;;;;;;;;17.30;99.90;;;17.70;54.78;99104.94;5463990;26;19935;-83
2024/04/09 00:44:37;;;;;;;;;;;17.40;99.90;;;17.79;53.83;99103.22;5522351;26;19935;-83
2024/04/09 00:47:08;;;;;;;;;;;17.50;99.90;;;17.84;53.82;99105.84;5494642;26;20293;-84
2024/04/09 00:49:34;;;;;;;;;;;17.60;99.90;;;17.84;53.57;99110.44;5465602;26;19928;-83
2024/04/09 00:52:07;;;;;;;;;;;17.60;99.90;;;17.88;53.59;99123.03;5465019;26;19928;-83
2024/04/09 00:54:35;;;;;;;;;;;17.60;99.90;;;17.91;53.74;99129.72;5466206;26;19935;-83
2024/04/09 00:57:04;;;;;;;;;;;17.70;99.90;;;17.91;53.90;99122.47;5462884;26;19935;-83
2024/04/09 00:59:32;;;;;;;;;;;17.70;99.90;;;17.90;53.90;99142.41;5466012;26;19935;-83
2024/04/09 01:02:01;;;;;;;;;;;17.70;99.90;;;17.95;54.16;99138.84;5465101;26;19928;-83
2024/04/09 01:04:27;;;;;;;;;;;17.80;99.90;;;17.98;54.64;99149.06;5462322;26;19932;-83
2024/04/09 01:06:56;;;;;;;;;;;17.80;99.90;;;18.02;54.87;99150.09;5466184;26;19974;-83
2024/04/09 01:09:25;;;;;;;;;;;17.90;99.90;;;18.04;55.26;99155.19;5493122;26;19929;-83
2024/04/09 01:11:55;;;;;;;;;;;17.90;99.90;;;18.05;54.81;99159.47;5462095;26;20279;-83
2024/04/09 01:14:21;;;;;;;;;;;17.90;99.90;;;18.01;55.73;99162.78;5463176;26;20275;-83
2024/04/09 01:16:51;;;;;;;;;;;17.90;99.90;;;17.99;57.06;99167.66;5464528;26;19928;-83
2024/04/09 01:19:17;;;;;;;;;;;17.80;99.90;;;17.94;57.74;99164.22;5465477;26;19948;-84
2024/04/09 01:21:47;;;;;;;;;;;17.80;99.90;;;17.90;58.74;99172.09;5464263;26;20263;-83
2024/04/09 01:24:16;;;;;;;;;;;17.70;99.90;;;17.88;59.38;99171.59;5461155;26;19937;-83
2024/04/09 01:26:45;;;;;;;;;;;17.70;99.90;;;17.87;59.80;99182.69;5463177;26;19928;-83
2024/04/09 01:29:11;;;;;;;;;;;17.60;99.90;;;17.86;59.97;99183.75;5462908;26;19929;-83
2024/04/09 01:31:41;;;;;;;;;;;17.60;99.90;;;17.83;60.41;99195.94;5462132;26;19936;-83
2024/04/09 01:34:09;;;;;;;;;;;17.60;99.90;;;17.77;60.47;99188.22;5465021;26;20386;-83
2024/04/09 01:36:38;;;;;;;;;;;17.50;99.90;;;17.78;60.77;99190.63;5493400;26;19928;-83
2024/04/09 01:39:08;;;;;;;;;;;17.50;99.90;;;17.68;61.66;99191.53;5435795;26;20372;-83
2024/04/09 01:41:41;;;;;;;;;;;17.40;99.90;;;17.68;61.71;99193.41;5428776;26;19936;-83
2024/04/09 01:44:07;;;;;;;;;;;17.40;99.90;;;17.66;61.51;99199.06;5428540;26;19929;-83
2024/04/09 01:46:37;;;;;;;;;;;17.30;99.90;;;17.64;61.83;99212.06;5426911;26;20002;-83
2024/04/09 01:49:04;;;;;;;;;;;17.30;99.90;;;17.65;62.11;99220.94;5429422;26;19933;-83
2024/04/09 01:51:34;;;;;;;;;;;17.30;99.90;;;17.62;62.43;99218.84;5396763;26;19965;-83
2024/04/09 01:54:00;;;;;;;;;;;17.20;99.90;;;17.58;62.72;99225.91;5428262;26;19941;-83
2024/04/09 01:56:29;;;;;;;;;;;17.20;99.90;;;17.56;62.70;99219.97;5425976;26;19929;-83
2024/04/09 01:58:58;;;;;;;;;;;17.10;99.90;;;17.51;63.22;99221.63;5426950;26;19941;-83
2024/04/09 02:01:27;;;;;;;;;;;17.10;99.90;;;17.52;63.37;99219.78;5429540;26;19944;-83
2024/04/09 02:03:56;;;;;;;;;;;17.10;99.90;;;17.49;63.30;99214.94;5426628;26;19957;-83
2024/04/09 02:06:26;;;;;;;;;;;17.10;99.90;;;17.50;63.46;99216.53;5428901;26;19978;-83
2024/04/09 02:08:53;;;;;;;;;;;17.00;99.90;;;17.49;63.49;99213.03;5428571;26;19935;-83
2024/04/09 02:11:25;;;;;;;;;;;17.00;99.90;;;17.48;63.90;99216.84;5427412;26;19975;-83
2024/04/09 02:13:53;;;;;;;;;;;17.00;99.90;;;17.45;63.89;99217.41;5427712;26;19929;-83
2024/04/09 02:16:25;;;;;;;;;;;16.90;99.90;;;17.45;63.95;99212.00;5396963;26;19941;-83
2024/04/09 02:18:52;;;;;;;;;;;16.90;99.90;;;17.41;64.39;99227.16;5428159;26;19929;-83
2024/04/09 02:21:23;;;;;;;;;;;16.90;99.90;;;17.41;63.85;99229.84;5425842;26;19937;-83
2024/04/09 02:23:51;;;;;;;;;;;16.90;99.90;;;17.38;64.37;99235.81;5427899;26;20269;-84
2024/04/09 02:26:20;;;;;;;;;;;16.90;99.90;;;17.32;64.20;99245.03;5426019;26;19929;-83
2024/04/09 02:28:47;;;;;;;;;;;16.80;99.90;;;17.32;64.67;99244.22;5426035;26;19935;-83
2024/04/09 02:31:16;;;;;;;;;;;16.80;99.90;;;17.30;64.64;99249.91;5427903;26;19932;-83
2024/04/09 02:33:45;;;;;;;;;;;16.80;99.90;;;17.28;64.75;99254.81;5429246;26;19936;-83
2024/04/09 02:36:14;;;;;;;;;;;16.70;99.90;;;17.22;65.02;99254.03;5427221;26;19929;-83
2024/04/09 02:38:41;;;;;;;;;;;16.70;99.90;;;17.21;64.95;99262.41;5428055;26;19998;-83
2024/04/09 02:41:13;;;;;;;;;;;16.70;99.90;;;17.21;65.28;99257.81;5455757;26;19937;-83
2024/04/09 02:43:39;;;;;;;;;;;16.60;99.90;;;17.19;65.38;99261.88;5429105;26;19929;-83
2024/04/09 02:46:08;;;;;;;;;;;16.60;99.90;;;17.18;65.23;99260.28;5426883;26;19941;-83
2024/04/09 02:48:35;;;;;;;;;;;16.60;99.90;;;17.16;65.38;99262.44;5428744;26;20006;-83
2024/04/09 02:51:07;;;;;;;;;;;16.60;99.90;;;17.15;65.55;99271.63;5424952;26;19929;-83
2024/04/09 02:53:34;;;;;;;;;;;16.60;99.90;;;17.11;65.51;99286.75;5425544;26;20376;-83
2024/04/09 02:56:04;;;;;;;;;;;16.50;99.90;;;17.09;65.86;99281.66;5427771;26;19935;-83
2024/04/09 02:58:31;;;;;;;;;;;16.50;99.90;;;17.05;65.61;99271.72;5396743;26;19933;-83
2024/04/09 03:01:06;;;;;;;;;;;16.50;99.90;;;17.07;65.56;99274.91;5427396;26;19975;-83
2024/04/09 03:03:32;;;;;;;;;;;16.50;99.90;;;17.06;65.72;99278.72;5455516;26;19971;-83
2024/04/09 03:06:11;;;;;;;;;;;16.50;99.90;;;17.02;65.97;99297.31;5396043;26;19940;-83
2024/04/09 03:08:37;;;;;;;;;;;16.50;99.90;;;16.99;66.13;99301.41;5427453;26;19941;-83
2024/04/09 03:11:13;;;;;;;;;;;16.40;99.90;;;16.95;66.07;99300.34;5396500;26;19929;-83
2024/04/09 03:13:40;;;;;;;;;;;16.40;99.90;;;16.92;66.44;99305.50;5427461;26;19949;-83
2024/04/09 03:16:16;;;;;;;;;;;16.30;99.90;;;16.92;66.46;99316.25;5427268;26;20384;-83
2024/04/09 03:18:42;;;;;;;;;;;16.30;99.90;;;16.89;66.31;99319.53;5427915;26;19929;-83
2024/04/09 03:21:14;;;;;;;;;;;16.30;99.90;;;16.85;66.60;99319.28;5395717;26;20027;-83
2024/04/09 03:23:42;;;;;;;;;;;16.20;99.90;;;16.84;66.63;99324.97;5427833;26;19929;-83
2024/04/09 03:26:12;;;;;;;;;;;16.20;99.90;;;16.81;66.58;99330.91;5427434;26;19929;-83
2024/04/09 03:28:38;;;;;;;;;;;16.20;99.90;;;16.78;67.04;99334.94;5395652;26;19936;-83
2024/04/09 03:31:08;;;;;;;;;;;16.20;99.90;;;16.77;66.74;99338.72;5427329;26;19998;-83
2024/04/09 03:33:35;;;;;;;;;;;16.20;99.90;;;16.75;67.06;99343.59;5426920;26;19979;-83
2024/04/09 03:36:07;;;;;;;;;;;16.20;99.90;;;16.74;67.29;99352.75;5395758;26;19936;-83
2024/04/09 03:38:39;;;;;;;;;;;16.10;99.90;;;16.75;67.57;99365.13;5396465;26;19929;-83
2024/04/09 03:41:09;;;;;;;;;;;16.10;99.90;;;16.74;67.23;99368.91;5396398;26;19929;-83
2024/04/09 03:43:35;;;;;;;;;;;16.20;99.90;;;16.66;68.05;99364.09;5336869;26;19929;-83
2024/04/09 03:46:07;;;;;;;;;;;16.20;99.90;;;16.68;67.85;99372.66;5395506;26;19975;-83
2024/04/09 03:48:34;;;;;;;;;;;16.20;99.90;;;16.69;68.25;99377.78;5395260;26;19929;-83
2024/04/09 03:51:07;;;;;;;;;;;16.20;99.90;;;16.71;68.08;99390.97;5453884;26;20006;-83
2024/04/09 03:53:36;;;;;;;;;;;16.20;99.90;;;16.73;67.92;99391.50;5455118;26;19929;-83
2024/04/09 03:56:07;;;;;;;;;;;16.20;99.90;;;16.73;67.82;99391.50;5427885;26;20391;-84
2024/04/09 03:58:37;;;;;;;;;;;16.20;99.90;;;16.72;68.15;99393.41;5426856;26;20300;-83
2024/04/09 04:01:08;;;;;;;;;;;16.20;99.90;;;16.71;68.35;99407.97;5427074;26;19936;-83
2024/04/09 04:03:35;;;;;;;;;;;16.20;99.90;;;16.72;68.06;99414.94;5425697;26;19933;-82
2024/04/09 04:06:05;;;;;;;;;;;16.20;99.90;;;16.72;68.15;99420.34;5428105;26;19928;-80
2024/04/09 04:08:32;;;;;;;;;;;16.20;99.90;;;16.75;67.72;99405.53;5427862;26;19929;-80
2024/04/09 04:11:05;;;;;;;;;;;16.30;99.90;;;16.75;68.24;99375.09;5396218;26;19975;-80
2024/04/09 04:13:32;;;;;;;;;;;16.30;99.90;;;16.72;68.16;99360.28;5455265;26;20380;-81
2024/04/09 04:16:03;;;;;;;;;;;16.20;99.90;;;16.67;68.41;99344.16;5395670;26;19929;-80
2024/04/09 04:18:29;;;;;;;;;;;16.20;99.90;;;16.69;68.05;99352.75;5427819;26;19935;-80
2024/04/09 04:20:58;;;;;;;;;;;16.20;99.90;;;16.68;68.26;99346.53;5395343;26;19937;-81
2024/04/09 04:23:25;;;;;;;;;;;16.20;99.90;;;16.69;68.41;99323.94;5395327;26;19961;-80
2024/04/09 04:26:01;;;;;;;;;;;16.20;99.90;;;16.67;68.53;99330.69;5452879;26;19938;-80
2024/04/09 04:28:32;;;;;;;;;;;16.20;99.90;;;16.67;68.69;99319.91;5394646;26;19936;-82
2024/04/09 04:31:01;;;;;;;;;;;16.20;99.90;;;16.70;68.93;99328.25;5426991;26;19929;-81
2024/04/09 04:33:28;;;;;;;;;;;16.20;99.90;;;16.71;68.72;99337.13;5317804;26;19942;-80
2024/04/09 04:35:56;;;;;;;;;;;16.20;99.90;;;16.72;69.33;99319.91;5343947;26;19931;-84
2024/04/09 04:38:23;;;;;;;;;;;16.20;99.90;;;16.69;69.31;99342.78;5289411;27;19930;-84
2024/04/09 04:40:52;;;;;;;;;;;16.20;99.90;;;16.67;69.87;99376.44;5260682;27;20421;-84
2024/04/09 04:43:18;;;;;;;;;;;16.20;99.90;;;16.61;70.05;99391.03;5289417;27;19931;-84
2024/04/09 04:45:54;;;;;;;;;;;16.20;99.90;;;16.60;70.22;99384.03;5315487;27;19937;-83
2024/04/09 04:48:21;;;;;;;;;;;16.10;99.90;;;16.54;70.89;99355.53;5259222;27;19942;-84
2024/04/09 04:50:52;;;;;;;;;;;16.10;99.90;;;16.55;71.12;99333.72;5283610;27;20309;-84
2024/04/09 04:53:18;;;;;;;;;;;16.10;99.90;;;16.57;70.82;99379.19;5312532;27;19942;-84
2024/04/09 04:55:47;;;;;;;;;;;16.10;99.90;;;16.54;71.24;99426.31;5330567;26;19936;-85
2024/04/09 04:58:13;;;;;;;;;;;16.10;99.90;;;16.50;71.39;99435.25;5382785;26;19929;-84
2024/04/09 05:00:42;;;;;;;;;;;16.00;99.90;;;16.48;71.64;99447.06;5354274;26;19933;-84
2024/04/09 05:03:11;;;;;;;;;;;16.00;99.90;;;16.45;72.02;99453.00;5356800;26;20010;-84
2024/04/09 05:05:41;;;;;;;;;;;16.00;99.90;;;16.43;71.86;99455.16;5385967;26;19941;-84
2024/04/09 05:08:07;;;;;;;;;;;15.90;99.90;;;16.44;71.93;99461.34;5386009;26;19938;-84
2024/04/09 05:10:36;;;;;;;;;;;16.00;99.90;;;16.43;71.96;99457.84;5386050;26;19928;-85
2024/04/09 05:13:04;;;;;;;;;;;16.00;99.90;;;16.38;72.30;99467.81;5430583;26;19935;-84
2024/04/09 05:15:33;;;;;;;;;;;16.00;99.90;;;16.39;72.44;99464.06;5460324;26;20383;-84
2024/04/09 05:18:01;;;;;;;;;;;16.00;99.90;;;16.41;72.32;99469.97;5457962;26;19928;-84
2024/04/09 05:20:33;;;;;;;;;;;15.90;99.90;;;16.42;72.56;99480.47;5457857;26;20379;-84
2024/04/09 05:22:59;;;;;;;;;;;16.00;99.90;;;16.40;72.70;99497.97;5458702;26;19932;-84
2024/04/09 05:25:32;;;;;;;;;;;16.00;99.90;;;16.42;72.37;99503.88;5458036;26;20387;-83
2024/04/09 05:27:58;;;;;;;;;;;16.00;99.90;;;16.42;72.98;99509.25;5458385;26;20263;-83
2024/04/09 05:30:27;;;;;;;;;;;16.00;99.90;;;16.40;72.67;99517.63;5459828;26;20353;-82
2024/04/09 05:32:53;;;;;;;;;;;15.90;99.90;;;16.42;72.61;99528.09;5456689;26;19936;-82
2024/04/09 05:35:22;;;;;;;;;;;16.00;99.90;;;16.39;72.89;99523.25;5457263;26;20452;-82
2024/04/09 05:37:54;;;;;;;;;;;15.90;99.90;;;16.39;73.05;99526.75;5429124;26;19928;-84
2024/04/09 05:40:27;;;;;;;;;;;15.90;99.90;;;16.42;73.02;99525.41;5460878;26;19936;-82
2024/04/09 05:42:55;;;;;;;;;;;16.00;99.90;;;16.41;73.36;99524.59;5457567;26;19928;-82
2024/04/09 05:45:24;;;;;;;;;;;15.90;99.90;;;16.37;73.31;99502.00;5427154;26;19938;-82
2024/04/09 05:47:51;;;;;;;;;;;15.90;99.90;;;16.38;73.47;99500.13;5459931;26;19928;-82
2024/04/09 05:50:20;;;;;;;;;;;15.90;99.90;;;16.36;73.88;99489.63;5456929;26;19932;-82
2024/04/09 05:52:46;;;;;;;;;;;15.90;99.90;;;16.32;73.65;99480.50;5399567;26;19929;-81
2024/04/09 05:55:19;;;;;;;;;;;15.90;99.90;;;16.31;73.93;99470.81;5458430;26;19953;-82
2024/04/09 05:57:45;;;;;;;;;;;15.90;99.90;;;16.33;74.03;99484.78;5424383;26;20002;-82
2024/04/09 06:00:16;;;;;;;;;;;15.90;99.90;;;16.33;73.95;99492.06;5391921;26;19937;-84
2024/04/09 06:02:45;;;;;;;;;;;15.90;99.90;;;16.32;74.16;99477.81;5426104;26;19929;-84
2024/04/09 06:05:15;;;;;;;;;;;15.90;99.90;;;16.33;74.15;99467.84;5417277;26;19929;-84
2024/04/09 06:07:42;;;;;;;;;;;15.90;99.90;;;16.27;74.32;99463.56;5395687;26;19936;-84
2024/04/09 06:10:12;;;;;;;;;;;15.90;99.90;;;16.28;74.16;99475.94;5425573;26;19929;-84
2024/04/09 06:12:41;;;;;;;;;;;15.80;99.90;;;16.32;74.02;99490.47;5367305;26;19929;-84
2024/04/09 06:15:10;;;;;;;;;;;15.90;99.90;;;16.27;74.31;99506.63;5375490;26;19929;-84
2024/04/09 06:17:37;;;;;;;;;;;15.80;99.90;;;16.28;74.15;99517.09;5385478;26;19936;-84
2024/04/09 06:20:06;;;;;;;;;;;15.90;99.90;;;16.29;74.34;99542.91;5392307;26;20277;-84
2024/04/09 06:22:32;;;;;;;;;;;15.90;99.90;;;16.30;74.20;99554.47;5360514;26;19989;-84
2024/04/09 06:25:03;;;;;;;;;;;15.80;99.90;;;16.28;74.57;99554.75;5359995;26;20361;-84
2024/04/09 06:27:29;;;;;;;;;;;15.80;99.90;;;16.23;74.55;99542.13;5389878;26;19933;-84
2024/04/09 06:30:00;;;;;;;;;;;15.80;99.90;;;16.21;74.44;99552.38;5366714;26;19928;-84
2024/04/09 06:32:27;;;;;;;;;;;15.80;99.90;;;16.18;74.89;99544.03;5428012;26;19944;-82
2024/04/09 06:34:57;;;;;;;;;;;15.70;99.90;;;16.15;74.85;99534.63;5427063;26;19940;-83
2024/04/09 06:37:24;;;;;;;;;;;15.70;99.90;;;16.18;75.01;99517.13;5424222;26;19929;-82
2024/04/09 06:39:52;;;;;;;;;;;15.70;99.90;;;16.06;75.18;99503.16;5394905;26;19964;-84
2024/04/09 06:42:22;;;;;;;;;;;15.70;99.90;;;16.11;75.61;99497.78;5359911;26;19945;-84
2024/04/09 06:44:48;;;;;;;;;;;15.70;99.90;;;16.16;74.99;99508.53;5386069;26;19929;-84
2024/04/09 06:47:21;;;;;;;;;;;15.70;99.90;;;16.02;75.15;99519.03;5452578;26;19998;-85
2024/04/09 06:49:47;;;;;;;;;;;15.60;99.90;;;15.82;74.60;99546.72;5391138;26;19944;-84
2024/04/09 06:52:18;;;;;;;;;;;15.50;99.90;;;15.80;74.81;99545.38;5421949;26;20004;-84
2024/04/09 06:54:44;;;;;;;;;;;15.50;99.90;;;15.56;74.22;99566.53;5446880;26;19928;-85
2024/04/09 06:57:13;;;;;;;;;;;15.40;99.90;;;15.61;74.95;99572.72;5420953;26;20005;-85
2024/04/09 06:59:39;;;;;;;;;;;15.30;99.90;;;15.60;74.16;99565.75;5417154;26;19929;-85
2024/04/09 07:02:09;;;;;;;;;;;15.20;99.90;;;15.35;74.26;99576.44;5419284;26;19929;-85
2024/04/09 07:04:38;;;;;;;;;;;15.10;99.90;;;15.34;74.02;99580.22;5391785;26;19930;-84
2024/04/09 07:07:08;;;;;;;;;;;15.10;99.90;;;15.29;74.60;99590.94;5386498;26;19929;-81
2024/04/09 07:09:34;;;;;;;;;;;15.00;99.90;;;15.27;74.14;99599.25;5387755;26;19937;-81
2024/04/09 07:12:03;;;;;;;;;;;14.90;99.90;;;15.25;74.18;99606.78;5366586;26;19928;-81
2024/04/09 07:14:29;;;;;;;;;;;14.90;99.90;;;15.28;74.09;99611.63;5451276;26;19936;-81
2024/04/09 07:16:58;;;;;;;;;;;14.90;99.90;;;15.22;73.94;99618.03;5448379;26;20388;-81
2024/04/09 07:19:24;;;;;;;;;;;14.90;99.90;;;15.26;74.31;99624.50;5392035;26;19936;-81
2024/04/09 07:21:56;;;;;;;;;;;14.90;99.90;;;15.15;74.50;99618.28;5383496;26;19929;-81
2024/04/09 07:24:22;;;;;;;;;;;14.80;99.90;;;15.24;74.17;99607.03;5363932;26;19929;-81
2024/04/09 07:26:52;;;;;;;;;;;14.80;99.90;;;15.18;73.62;99609.72;5388351;26;19929;-81
2024/04/09 07:29:18;;;;;;;;;;;14.70;99.90;;;15.13;73.54;99628.50;5366879;26;19936;-82
2024/04/09 07:31:47;;;;;;;;;;;14.70;99.90;;;15.09;73.40;99658.81;5421843;26;19929;-82
2024/04/09 07:34:14;;;;;;;;;;;14.70;99.90;;;14.83;72.88;99677.44;5397206;26;19929;-81
2024/04/09 07:36:43;;;;;;;;;;;14.50;99.90;;;14.65;71.04;99688.59;5389942;26;19930;-81
2024/04/09 07:39:14;;;;;;;;;;;14.30;99.90;;;14.56;70.91;99693.63;5377426;26;19933;-81
2024/04/09 07:41:44;;;;;;;;;;;14.20;99.90;;;14.60;70.80;99688.56;5422948;26;19929;-81
2024/04/09 07:44:10;;;;;;;;;;;14.20;99.90;;;14.61;70.73;99700.91;5449347;26;19929;-81
2024/04/09 07:46:40;;;;;;;;;;;14.20;99.90;;;14.63;70.57;99707.63;5419854;26;20297;-81
2024/04/09 07:49:06;;;;;;;;;;;14.20;99.90;;;14.66;70.64;99717.88;5388832;26;19936;-81
2024/04/09 07:51:36;;;;;;;;;;;14.10;99.90;;;14.67;70.67;99719.47;5420423;26;19953;-81
2024/04/09 07:54:03;;;;;;;;;;;14.20;99.90;;;14.70;70.32;99722.72;5417196;26;20426;-82
2024/04/09 07:56:36;;;;;;;;;;;14.20;99.90;;;14.75;70.09;99747.72;5423662;26;19936;-79
2024/04/09 07:59:02;;;;;;;;;;;14.20;99.90;;;14.78;70.22;99744.50;5456480;26;19936;-82
2024/04/09 08:01:31;;;;;;;;;;;14.20;99.90;;;14.71;69.68;99735.88;5454303;26;19936;-82
2024/04/09 08:03:58;;;;;;;;;;;14.20;99.90;;;14.74;70.17;99739.91;5485098;26;19928;-81
2024/04/09 08:06:28;;;;;;;;;;;14.20;99.90;;;14.83;70.63;99747.25;5423828;26;19929;-82
2024/04/09 08:08:57;;;;;;;;;;;14.30;99.90;;;14.88;70.62;99736.56;5485177;26;19929;-82
2024/04/09 08:11:26;;;;;;;;;;;14.30;99.90;;;14.85;70.02;99720.16;5484936;26;20269;-82
2024/04/09 08:13:54;;;;;;;;;;;14.30;99.90;;;14.87;70.68;99707.28;5480592;26;19929;-82
2024/04/09 08:16:24;;;;;;;;;;;14.40;99.90;;;14.94;70.70;99713.25;5418807;26;19929;-82
2024/04/09 08:18:50;;;;;;;;;;;14.50;99.90;;;14.96;70.92;99715.66;5435003;26;19968;-82
2024/04/09 08:21:19;;;;;;;;;;;14.50;99.90;;;14.84;70.59;99707.81;5514796;26;20388;-82
2024/04/09 08:23:45;;;;;;;;;;;14.40;99.90;;;14.96;70.79;99696.88;5444923;26;19929;-81
2024/04/09 08:26:14;;;;;;;;;;;14.50;99.90;;;15.01;71.78;99704.94;5442238;26;19939;-81
2024/04/09 08:28:41;;;;;;;;;;;14.60;99.90;;;15.03;70.08;99717.06;5453881;26;19929;-82
2024/04/09 08:31:16;;;;;;;;;;;14.60;99.90;;;15.05;70.10;99725.66;5453962;26;19928;-81
2024/04/09 08:33:44;;;;;;;;;;;14.60;99.90;;;15.06;69.98;99737.22;5516809;26;19928;-81
2024/04/09 08:36:13;;;;;;;;;;;14.60;99.90;;;15.12;70.21;99741.53;5459323;26;19932;-82
2024/04/09 08:38:39;;;;;;;;;;;14.70;99.90;;;15.14;69.60;99760.91;5459204;26;19936;-82
2024/04/09 08:41:10;;;;;;;;;;;14.70;99.90;;;15.16;70.11;99754.19;5458297;26;19960;-81
2024/04/09 08:43:38;;;;;;;;;;;14.70;99.90;;;14.96;70.23;99740.63;5458657;26;19997;-82
2024/04/09 08:46:07;;;;;;;;;;;14.60;99.90;;;15.03;70.45;99722.44;5458990;26;19935;-82
2024/04/09 08:48:37;;;;;;;;;;;14.60;99.90;;;15.09;70.91;99712.53;5517185;26;19928;-82
2024/04/09 08:51:08;;;;;;;;;;;14.70;99.90;;;15.20;70.30;99719.56;5458464;26;19932;-82
2024/04/09 08:53:35;;;;;;;;;;;14.80;99.90;;;15.15;69.31;99744.53;5458681;26;19944;-82
2024/04/09 08:56:04;;;;;;;;;;;14.80;99.90;;;14.99;67.56;99776.91;5456716;26;19928;-81
2024/04/09 08:58:32;;;;;;;;;;;14.80;99.90;;;14.98;67.95;99799.44;5459418;26;19935;-81
2024/04/09 09:01:01;;;;;;;;;;;14.70;99.90;;;14.91;68.06;99789.72;5461108;26;20379;-82
2024/04/09 09:03:27;;;;;;;;;;;14.70;99.90;;;14.92;68.19;99790.53;5463683;26;19935;-83
2024/04/09 09:06:04;;;;;;;;;;;14.60;99.90;;;14.97;68.35;99790.59;5460470;26;19961;-83
2024/04/09 09:08:39;;;;;;;;;;;14.60;99.90;;;14.83;65.99;99797.44;5463918;26;19997;-83
2024/04/09 09:11:08;;;;;;;;;;;14.50;99.90;;;14.75;67.67;99796.06;5461646;26;20394;-82
2024/04/09 09:13:34;;;;;;;;;;;14.40;99.90;;;14.83;68.12;99814.34;5519911;26;19937;-83
2024/04/09 09:16:06;;;;;;;;;;;14.50;99.90;;;14.75;67.04;99800.59;5462230;26;20286;-83
2024/04/09 09:18:32;;;;;;;;;;;14.50;99.90;;;14.92;67.67;99791.34;5457294;26;19929;-83
2024/04/09 09:21:05;;;;;;;;;;;14.70;99.90;;;14.94;66.87;99805.34;5458395;26;19928;-83
2024/04/09 09:23:33;;;;;;;;;;;14.70;99.90;;;15.02;66.38;99800.56;5458655;26;19928;-83
2024/04/09 09:26:05;;;;;;;;;;;14.70;99.90;;;14.98;64.77;99789.50;5517047;26;19932;-83
2024/04/09 09:28:34;;;;;;;;;;;14.70;99.90;;;14.84;65.03;99793.72;5456951;26;19928;-83
2024/04/09 09:31:03;;;;;;;;;;;14.60;99.90;;;14.92;65.34;99793.22;5459944;26;19929;-82
2024/04/09 09:33:30;;;;;;;;;;;14.60;99.90;;;14.98;65.58;99810.19;5520257;26;19935;-83
2024/04/09 09:35:59;;;;;;;;;;;14.60;99.90;;;14.92;64.86;99818.19;5430409;26;19936;-83
2024/04/09 09:38:28;;;;;;;;;;;14.60;99.90;;;14.98;65.11;99850.47;5461254;26;20452;-83
2024/04/09 09:40:57;;;;;;;;;;;14.60;99.90;;;14.91;62.66;99874.84;5461057;26;19932;-83
2024/04/09 09:43:24;;;;;;;;;;;14.50;99.90;;;14.83;64.25;99883.34;5462333;26;19928;-83
2024/04/09 09:45:53;;;;;;;;;;;14.50;99.90;;;14.82;64.65;99887.09;5459036;26;19997;-83
2024/04/09 09:48:21;;;;;;;;;;;14.40;99.90;;;14.61;62.69;99888.78;5460343;26;19929;-83
2024/04/09 09:50:50;;;;;;;;;;;14.30;99.90;;;14.42;61.39;99880.22;5459932;26;19965;-83
2024/04/09 09:53:17;;;;;;;;;;;14.20;99.90;;;14.43;62.03;99885.31;5460112;26;19941;-83
2024/04/09 09:55:51;;;;;;;;;;;14.10;99.90;;;14.43;62.21;99869.22;5453476;26;19936;-82
2024/04/09 09:58:22;;;;;;;;;;;14.10;99.90;;;14.28;61.73;99865.56;5426357;26;20372;-83
2024/04/09 10:00:53;;;;;;;;;;;14.00;99.90;;;14.34;62.45;99870.72;5426633;26;19929;-82
2024/04/09 10:03:21;;;;;;;;;;;14.00;99.90;;;14.42;61.92;99875.66;5426113;26;20002;-82
2024/04/09 10:05:51;;;;;;;;;;;14.00;99.90;;;14.56;62.31;99872.63;5425917;26;19936;-83
2024/04/09 10:08:18;;;;;;;;;;;14.10;99.90;;;14.72;61.91;99854.78;5426511;26;19928;-83
2024/04/09 10:10:50;;;;;;;;;;;14.30;99.90;;;14.77;60.34;99852.97;5394462;26;20441;-82
2024/04/09 10:13:18;;;;;;;;;;;14.40;99.90;;;14.99;62.65;99854.78;5426950;26;19978;-82
2024/04/09 10:15:48;;;;;;;;;;;14.60;99.90;;;15.02;61.09;99838.94;5393661;26;19936;-82
2024/04/09 10:18:34;;;;;;;;;;;14.90;99.90;;;15.10;61.86;99824.25;5425815;26;19929;-82
2024/04/09 10:21:04;;;;;;;;;;;15.00;99.90;;;15.24;62.13;99800.47;5393964;26;19959;-83
2024/04/09 10:23:34;;;;;;;;;;;15.20;99.90;;;15.26;59.48;99806.38;5453296;26;19929;-83
2024/04/09 10:26:08;;;;;;;;;;;15.20;99.90;;;15.27;61.71;99810.66;5393536;26;19974;-83
2024/04/09 10:28:35;;;;;;;;;;;15.30;99.90;;;15.25;61.22;99826.25;5425763;26;20396;-83
2024/04/09 10:31:08;;;;;;;;;;;15.30;99.90;;;15.19;60.67;99852.28;5393115;26;20299;-83
2024/04/09 10:33:35;;;;;;;;;;;15.20;99.90;;;15.19;57.78;99871.06;5452211;26;20388;-83
2024/04/09 10:36:08;;;;;;;;;;;15.20;99.90;;;15.07;58.13;99873.91;5452661;26;19929;-82
2024/04/09 10:38:41;;;;;;;;;;;15.20;99.90;;;15.16;57.30;99898.44;5452848;26;19935;-82
2024/04/09 10:41:11;;;;;;;;;;;15.20;99.90;;;15.12;57.35;99898.13;5424984;26;20261;-82
2024/04/09 10:43:40;;;;;;;;;;;15.20;99.90;;;15.01;55.46;99891.06;5425593;26;19941;-83
2024/04/09 10:46:07;;;;;;;;;;;15.10;99.90;;;14.94;54.08;99904.69;5423709;26;19929;-83
2024/04/09 10:48:36;;;;;;;;;;;15.10;99.90;;;14.84;55.20;99901.09;5425114;26;19937;-82
2024/04/09 10:51:03;;;;;;;;;;;15.00;99.90;;;14.94;55.57;99893.94;5394598;26;19944;-83
2024/04/09 10:53:36;;;;;;;;;;;15.00;99.90;;;14.90;55.53;99892.84;5422285;26;19929;-82
2024/04/09 10:56:04;;;;;;;;;;;15.00;99.90;;;14.97;55.78;99894.50;5415828;26;19928;-83
2024/04/09 10:58:39;;;;;;;;;;;15.00;99.90;;;15.04;56.45;99908.53;5519349;26;19933;-83
2024/04/09 11:01:06;;;;;;;;;;;15.10;99.90;;;15.04;56.32;99909.34;5459434;26;19936;-82
2024/04/09 11:03:38;;;;;;;;;;;15.10;99.90;;;15.12;56.45;99910.75;5458585;26;20448;-83
2024/04/09 11:06:04;;;;;;;;;;;15.10;99.90;;;15.08;55.48;99921.22;5459733;26;19929;-83
2024/04/09 11:08:35;;;;;;;;;;;15.00;99.90;;;15.07;55.87;99914.19;5459687;26;20398;-82
2024/04/09 11:11:01;;;;;;;;;;;15.10;99.90;;;15.07;57.27;99916.88;5460620;26;20049;-83
2024/04/09 11:13:31;;;;;;;;;;;15.10;99.90;;;15.07;55.97;99926.81;5459101;26;19928;-83
2024/04/09 11:16:01;;;;;;;;;;;15.00;99.90;;;15.11;56.85;99933.31;5457690;26;19940;-83
2024/04/09 11:18:30;;;;;;;;;;;15.00;99.90;;;15.13;57.20;99932.00;5461517;26;19929;-83
2024/04/09 11:20:57;;;;;;;;;;;15.10;99.90;;;15.24;58.63;99935.59;5459388;26;19928;-83
2024/04/09 11:23:28;;;;;;;;;;;15.10;99.90;;;15.18;55.47;99929.38;5461334;26;19929;-83
2024/04/09 11:25:54;;;;;;;;;;;15.10;99.90;;;15.22;55.41;99923.47;5461962;26;19940;-83